Time;durP1;ratioP1;P1;durP2;ratioP2;P2;SDS_P1;SDS_P2;PMS_P1;PMS_P2;Temp;Humidity;BMP_temperature;BMP_pressure;BME280_temperature;BME280_humidity;BME280_pressure;Samples;Min_cycle;Max_cycle;Signal;HPM_P1;HPM_P2
2022/04/14 00:01:24;;;;;;;0.10;0.10;;;15.00;99.90;;;;;;4992394;28;20032;-62
2022/04/14 00:03:49;;;;;;;0.10;0.10;;;14.90;99.90;;;;;;4992580;28;20429;-63
2022/04/14 00:06:15;;;;;;;0.10;0.10;;;14.90;99.90;;;;;;4995831;28;20025;-63
2022/04/14 00:08:41;;;;;;;0.30;0.30;;;14.90;99.90;;;;;;5011688;28;20061;-63
2022/04/14 00:11:06;;;;;;;0.10;0.10;;;14.90;99.90;;;;;;5011634;28;20037;-60
2022/04/14 00:13:32;;;;;;;0.10;0.10;;;14.90;99.90;;;;;;5010961;28;20106;-62
2022/04/14 00:15:57;;;;;;;0.20;0.20;;;14.80;99.90;;;;;;5011877;28;20040;-62
2022/04/14 00:18:23;;;;;;;0.10;0.10;;;14.80;99.90;;;;;;5011806;28;20105;-64
2022/04/14 00:20:48;;;;;;;0.10;0.10;;;14.80;99.90;;;;;;5011408;28;20050;-65
2022/04/14 00:23:14;;;;;;;0.10;0.10;;;14.80;99.90;;;;;;5011298;28;20026;-64
2022/04/14 00:25:40;;;;;;;0.10;0.10;;;14.70;99.90;;;;;;5011541;28;20476;-62
2022/04/14 00:28:05;;;;;;;0.10;0.10;;;14.60;99.90;;;;;;5011429;28;20141;-62
2022/04/14 00:30:31;;;;;;;0.10;0.10;;;14.50;99.90;;;;;;5011349;28;20568;-63
2022/04/14 00:32:57;;;;;;;0.10;0.10;;;14.50;99.90;;;;;;5010921;28;20033;-61
2022/04/14 00:35:22;;;;;;;0.10;0.10;;;14.40;99.90;;;;;;5011441;28;20058;-62
2022/04/14 00:37:48;;;;;;;0.10;0.10;;;14.50;99.90;;;;;;5011474;28;20026;-63
2022/04/14 00:40:13;;;;;;;0.10;0.10;;;14.40;99.90;;;;;;5011140;28;20036;-62
2022/04/14 00:42:39;;;;;;;0.10;0.10;;;14.50;99.90;;;;;;5008759;28;20022;-63
2022/04/14 00:45:06;;;;;;;0.10;0.10;;;14.40;99.90;;;;;;5004847;28;20032;-62
2022/04/14 00:47:34;;;;;;;0.10;0.10;;;14.40;99.90;;;;;;5003011;28;20101;-62
2022/04/14 00:50:00;;;;;;;0.10;0.10;;;14.40;99.90;;;;;;5010776;28;20026;-63
2022/04/14 00:52:26;;;;;;;0.10;0.10;;;14.40;99.90;;;;;;5010759;28;20080;-63
2022/04/14 00:54:52;;;;;;;0.45;0.45;;;14.40;99.90;;;;;;5011072;28;20041;-62
2022/04/14 00:57:18;;;;;;;0.10;0.10;;;14.30;99.90;;;;;;5011182;28;20034;-62
2022/04/14 00:59:44;;;;;;;0.03;0.03;;;14.30;99.90;;;;;;5010084;28;20053;-63
2022/04/14 01:02:10;;;;;;;0.10;0.10;;;14.30;99.90;;;;;;5010747;28;20084;-62
2022/04/14 01:04:37;;;;;;;0.10;0.10;;;14.30;99.90;;;;;;5009549;28;20030;-62
2022/04/14 01:07:06;;;;;;;0.00;0.00;;;14.30;99.90;;;;;;5010859;28;20097;-63
2022/04/14 01:09:32;;;;;;;0.10;0.10;;;14.30;99.90;;;;;;5004052;28;20117;-61
2022/04/14 01:11:58;;;;;;;0.10;0.10;;;14.30;99.90;;;;;;5010524;28;20065;-62
2022/04/14 01:14:42;;;;;;;0.10;0.10;;;14.20;99.90;;;;;;5010303;28;20388;-62
2022/04/14 01:17:09;;;;;;;0.10;0.10;;;14.10;99.90;;;;;;5010811;28;20026;-64
2022/04/14 01:19:36;;;;;;;0.10;0.10;;;14.10;99.90;;;;;;5014162;22;20042;-58
2022/04/14 01:22:25;;;;;;;0.05;0.05;;;13.90;99.90;;;;;;4989416;28;20077;-59
2022/04/14 01:24:54;;;;;;;0.05;0.05;;;13.90;99.90;;;;;;4982496;28;20024;-60
2022/04/14 01:27:19;;;;;;;0.10;0.10;;;13.90;99.90;;;;;;4990186;28;20105;-60
2022/04/14 01:29:46;;;;;;;0.10;0.10;;;13.80;99.90;;;;;;4975741;28;20365;-61
2022/04/14 01:32:12;;;;;;;0.10;0.10;;;13.80;99.90;;;;;;4990569;28;20026;-60
2022/04/14 01:34:37;;;;;;;0.10;0.10;;;13.80;99.90;;;;;;4990674;28;20040;-60
2022/04/14 01:37:03;;;;;;;0.10;0.10;;;13.80;99.90;;;;;;4990490;28;20398;-59
2022/04/14 01:39:30;;;;;;;0.10;0.10;;;13.80;99.90;;;;;;4989655;28;20034;-59
2022/04/14 01:41:56;;;;;;;0.10;0.10;;;13.90;99.90;;;;;;4982209;28;20019;-59
2022/04/14 01:44:22;;;;;;;3.72;1.00;;;13.90;99.90;;;;;;4982419;28;20046;-60
2022/04/14 01:46:47;;;;;;;0.10;0.10;;;13.80;99.90;;;;;;4971244;28;20073;-60
2022/04/14 01:49:13;;;;;;;0.10;0.10;;;13.80;99.90;;;;;;4971496;28;20038;-59
2022/04/14 01:51:39;;;;;;;0.10;0.10;;;13.80;99.90;;;;;;4970845;28;20038;-59
2022/04/14 01:54:06;;;;;;;0.10;0.10;;;13.80;99.90;;;;;;4971005;28;20090;-59
2022/04/14 01:56:32;;;;;;;0.10;0.10;;;13.80;99.90;;;;;;4971026;28;20063;-60
2022/04/14 01:58:58;;;;;;;0.10;0.10;;;13.80;99.90;;;;;;4987988;28;20038;-59
2022/04/14 02:01:24;;;;;;;0.00;0.00;;;13.80;99.90;;;;;;4989726;28;20451;-59
2022/04/14 02:03:50;;;;;;;0.10;0.10;;;13.70;99.90;;;;;;4990339;28;20370;-60
2022/04/14 02:06:16;;;;;;;0.10;0.10;;;13.70;99.90;;;;;;4989322;28;20022;-59
2022/04/14 02:08:43;;;;;;;0.25;0.25;;;13.70;99.90;;;;;;4990140;28;20041;-59
2022/04/14 02:11:10;;;;;;;0.10;0.10;;;13.70;99.90;;;;;;4988704;28;20040;-59
2022/04/14 02:13:36;;;;;;;0.10;0.10;;;13.70;99.90;;;;;;4986414;28;20110;-59
2022/04/14 02:16:02;;;;;;;0.10;0.10;;;13.60;99.90;;;;;;4989632;28;20030;-59
2022/04/14 02:18:28;;;;;;;0.30;0.30;;;13.60;99.90;;;;;;4990147;28;20493;-60
2022/04/14 02:20:53;;;;;;;0.10;0.10;;;13.50;99.90;;;;;;4989242;28;20042;-59
2022/04/14 02:23:20;;;;;;;0.10;0.10;;;13.50;99.90;;;;;;4990072;28;20033;-59
2022/04/14 02:25:46;;;;;;;0.10;0.10;;;13.40;99.90;;;;;;4990024;28;20033;-58
2022/04/14 02:28:13;;;;;;;0.30;0.30;;;13.40;99.90;;;;;;4990228;28;20085;-58
2022/04/14 02:30:39;;;;;;;0.10;0.10;;;13.40;99.90;;;;;;4978665;28;20194;-59
2022/04/14 02:33:05;;;;;;;0.03;0.03;;;13.50;99.90;;;;;;4970551;28;20047;-59
2022/04/14 02:35:31;;;;;;;0.10;0.10;;;13.50;99.90;;;;;;4981579;28;20022;-59
2022/04/14 02:37:56;;;;;;;0.00;0.00;;;13.50;99.90;;;;;;4979527;28;20033;-59
2022/04/14 02:40:24;;;;;;;0.10;0.10;;;13.40;99.90;;;;;;4977791;28;20026;-59
2022/04/14 02:42:50;;;;;;;0.10;0.10;;;13.40;99.90;;;;;;4981910;28;20029;-60
2022/04/14 02:45:16;;;;;;;0.00;0.00;;;13.30;99.90;;;;;;4989885;28;20506;-60
2022/04/14 02:47:41;;;;;;;0.10;0.10;;;13.30;99.90;;;;;;4989180;28;20037;-59
2022/04/14 02:50:08;;;;;;;0.00;0.00;;;13.40;99.90;;;;;;4989885;28;20033;-59
2022/04/14 02:52:33;;;;;;;0.10;0.10;;;13.30;99.90;;;;;;4989858;28;20549;-59
2022/04/14 02:54:59;;;;;;;0.10;0.10;;;13.30;99.90;;;;;;4989276;28;20117;-59
2022/04/14 02:57:24;;;;;;;0.28;0.28;;;13.30;99.90;;;;;;4989801;28;20511;-60
2022/04/14 02:59:50;;;;;;;0.10;0.10;;;13.30;99.90;;;;;;4989235;28;20022;-58
2022/04/14 03:02:16;;;;;;;0.20;0.20;;;13.30;99.90;;;;;;4984938;28;20023;-60
2022/04/14 03:04:41;;;;;;;0.10;0.10;;;13.30;99.90;;;;;;4979885;28;20351;-61
2022/04/14 03:07:07;;;;;;;0.10;0.10;;;13.20;99.90;;;;;;4988280;28;20025;-60
2022/04/14 03:09:33;;;;;;;0.10;0.10;;;13.20;99.90;;;;;;4989593;28;20030;-60
2022/04/14 03:11:58;;;;;;;6.68;3.03;;;13.10;99.90;;;;;;4989339;28;20038;-60
2022/04/14 03:14:24;;;;;;;0.10;0.10;;;13.20;99.90;;;;;;4988803;28;20041;-60
2022/04/14 03:16:50;;;;;;;0.10;0.10;;;13.20;99.90;;;;;;4989666;28;20109;-60
2022/04/14 03:19:15;;;;;;;0.40;0.40;;;13.10;99.90;;;;;;4989277;28;20544;-60
2022/04/14 03:21:41;;;;;;;0.10;0.10;;;13.10;99.90;;;;;;4988774;28;20026;-59
2022/04/14 03:24:07;;;;;;;0.10;0.10;;;13.10;99.90;;;;;;4989491;28;20407;-59
2022/04/14 03:26:32;;;;;;;0.10;0.10;;;13.00;99.90;;;;;;4984809;28;20029;-58
2022/04/14 03:28:58;;;;;;;1.45;1.40;;;13.00;99.90;;;;;;4972732;28;20030;-59
2022/04/14 03:31:23;;;;;;;0.10;0.10;;;13.00;99.90;;;;;;4976998;28;20497;-59
2022/04/14 03:33:49;;;;;;;0.10;0.10;;;12.90;99.90;;;;;;4984300;28;20101;-59
2022/04/14 03:36:14;;;;;;;0.10;0.10;;;12.90;99.90;;;;;;4985687;28;20080;-60
2022/04/14 03:38:40;;;;;;;0.10;0.10;;;12.90;99.90;;;;;;4981060;28;20502;-59
2022/04/14 03:41:07;;;;;;;0.10;0.10;;;12.80;99.90;;;;;;4978383;28;20029;-60
2022/04/14 03:43:34;;;;;;;0.10;0.10;;;12.80;99.90;;;;;;4992762;28;20053;-59
2022/04/14 03:46:00;;;;;;;0.10;0.10;;;12.90;99.90;;;;;;4992515;28;20073;-60
2022/04/14 03:48:25;;;;;;;0.10;0.10;;;12.90;99.90;;;;;;4992451;28;20068;-59
2022/04/14 03:50:51;;;;;;;0.10;0.10;;;12.90;99.90;;;;;;4991759;28;20165;-59
2022/04/14 03:53:18;;;;;;;0.63;0.63;;;13.00;99.90;;;;;;4992790;28;20062;-60
2022/04/14 03:55:46;;;;;;;0.32;0.32;;;12.90;99.90;;;;;;4992707;28;20545;-59
2022/04/14 03:58:12;;;;;;;0.10;0.10;;;12.90;99.90;;;;;;4992634;28;20085;-59
2022/04/14 04:00:38;;;;;;;0.10;0.10;;;12.80;99.90;;;;;;4990273;28;20031;-60
2022/04/14 04:03:03;;;;;;;0.10;0.10;;;12.80;99.90;;;;;;4992214;28;20025;-58
2022/04/14 04:05:29;;;;;;;0.10;0.10;;;12.70;99.90;;;;;;4991826;28;20560;-59
2022/04/14 04:07:54;;;;;;;0.10;0.10;;;12.80;99.90;;;;;;4992641;28;20030;-60
2022/04/14 04:10:20;;;;;;;0.10;0.10;;;12.70;99.90;;;;;;4976520;28;20107;-60
2022/04/14 04:12:46;;;;;;;0.00;0.00;;;12.70;99.90;;;;;;4977930;28;20050;-59
2022/04/14 04:15:12;;;;;;;0.20;0.20;;;12.60;99.90;;;;;;4992325;28;20034;-59
2022/04/14 04:17:39;;;;;;;0.10;0.10;;;12.60;99.90;;;;;;4992375;28;20135;-59
2022/04/14 04:20:06;;;;;;;0.10;0.10;;;12.60;99.90;;;;;;4975150;28;20534;-59
2022/04/14 04:22:35;;;;;;;0.10;0.10;;;12.60;99.90;;;;;;4972735;28;20057;-60
2022/04/14 04:25:01;;;;;;;0.80;0.80;;;12.50;99.90;;;;;;4972515;28;20097;-59
2022/04/14 04:27:27;;;;;;;0.10;0.10;;;12.60;99.90;;;;;;4987925;28;20102;-59
2022/04/14 04:29:52;;;;;;;0.13;0.13;;;12.50;99.90;;;;;;4983493;28;20497;-59
2022/04/14 04:32:18;;;;;;;0.10;0.10;;;12.50;99.90;;;;;;4984723;28;20039;-59
2022/04/14 04:34:44;;;;;;;0.38;0.38;;;12.50;99.90;;;;;;4980033;28;20034;-60
2022/04/14 04:37:10;;;;;;;0.20;0.20;;;12.50;99.90;;;;;;4986001;28;20026;-60
2022/04/14 04:39:35;;;;;;;0.10;0.10;;;12.50;99.90;;;;;;4991729;28;20026;-58
2022/04/14 04:42:01;;;;;;;0.30;0.30;;;12.40;99.90;;;;;;4991847;28;20045;-59
2022/04/14 04:44:26;;;;;;;0.17;0.17;;;12.40;99.90;;;;;;4991019;28;20014;-59
2022/04/14 04:46:52;;;;;;;0.10;0.10;;;12.40;99.90;;;;;;4991777;28;20101;-60
2022/04/14 04:49:18;;;;;;;0.10;0.10;;;12.40;99.90;;;;;;4991191;28;20422;-60
2022/04/14 04:51:43;;;;;;;0.10;0.10;;;12.40;99.90;;;;;;4991673;28;20040;-59
2022/04/14 04:54:09;;;;;;;0.10;0.10;;;12.30;99.90;;;;;;4990935;28;20679;-61
2022/04/14 04:56:35;;;;;;;0.00;0.00;;;12.30;99.90;;;;;;4991576;28;20096;-60
2022/04/14 04:59:01;;;;;;;0.10;0.10;;;12.40;99.90;;;;;;4991444;28;20026;-60
2022/04/14 05:01:26;;;;;;;0.08;0.08;;;12.30;99.90;;;;;;4990899;28;20518;-60
2022/04/14 05:03:52;;;;;;;2.50;1.30;;;12.30;99.90;;;;;;4990426;28;20022;-60
2022/04/14 05:06:18;;;;;;;0.10;0.10;;;12.30;99.90;;;;;;4990828;28;20049;-59
2022/04/14 05:08:43;;;;;;;0.32;0.32;;;12.30;99.90;;;;;;4991185;28;20022;-60
2022/04/14 05:11:09;;;;;;;0.20;0.20;;;12.30;99.90;;;;;;4991039;28;20026;-58
2022/04/14 05:13:35;;;;;;;0.10;0.10;;;12.30;99.90;;;;;;4990683;28;20035;-59
2022/04/14 05:16:02;;;;;;;0.10;0.10;;;12.30;99.90;;;;;;4989934;28;20027;-60
2022/04/14 05:18:28;;;;;;;0.10;0.10;;;12.40;99.90;;;;;;4990844;28;20057;-60
2022/04/14 05:20:54;;;;;;;0.10;0.10;;;12.50;99.90;;;;;;4983159;28;20062;-60
2022/04/14 05:23:19;;;;;;;0.10;0.10;;;12.50;99.90;;;;;;4971523;28;20034;-60
2022/04/14 05:25:45;;;;;;;0.10;0.10;;;12.60;99.90;;;;;;4989358;28;20529;-59
2022/04/14 05:28:11;;;;;;;1.58;1.48;;;12.60;99.90;;;;;;4977939;28;20030;-59
2022/04/14 05:30:36;;;;;;;0.13;0.13;;;12.60;99.90;;;;;;4988290;28;20032;-61
2022/04/14 05:33:02;;;;;;;0.00;0.00;;;12.60;99.90;;;;;;4989229;28;20041;-60
2022/04/14 05:35:28;;;;;;;0.10;0.10;;;12.60;99.90;;;;;;4988751;28;20061;-58
2022/04/14 05:37:53;;;;;;;0.10;0.10;;;12.60;99.90;;;;;;4990069;28;20022;-61
2022/04/14 05:40:19;;;;;;;0.10;0.10;;;12.70;99.90;;;;;;4970902;28;20031;-60
2022/04/14 05:42:47;;;;;;;0.10;0.10;;;12.70;99.90;;;;;;4971157;28;20795;-59
2022/04/14 05:45:13;;;;;;;0.10;0.10;;;12.70;99.90;;;;;;4971040;28;20557;-59
2022/04/14 05:47:39;;;;;;;0.10;0.10;;;12.90;99.90;;;;;;4971283;28;20031;-59
2022/04/14 05:50:06;;;;;;;0.00;0.00;;;12.80;99.90;;;;;;4970446;28;20039;-60
2022/04/14 05:52:31;;;;;;;0.10;0.10;;;12.80;99.90;;;;;;4970923;28;20027;-58
2022/04/14 05:55:01;;;;;;;0.00;0.00;;;12.90;99.90;;;;;;4970987;28;20038;-60
2022/04/14 05:57:27;;;;;;;0.15;0.15;;;12.90;99.90;;;;;;4970782;28;20081;-61
2022/04/14 05:59:53;;;;;;;0.10;0.10;;;13.00;99.90;;;;;;4983656;28;20056;-59
2022/04/14 06:02:19;;;;;;;0.10;0.10;;;13.00;99.90;;;;;;4990017;28;20505;-61
2022/04/14 06:04:44;;;;;;;0.10;0.10;;;13.10;99.90;;;;;;4990072;28;20069;-61
2022/04/14 06:07:10;;;;;;;0.10;0.10;;;13.10;99.90;;;;;;4989094;28;20022;-58
2022/04/14 06:09:36;;;;;;;0.10;0.10;;;13.20;99.90;;;;;;4990034;28;20604;-59
2022/04/14 06:12:01;;;;;;;0.43;0.43;;;13.20;99.90;;;;;;4990004;28;20026;-60
2022/04/14 06:14:28;;;;;;;0.10;0.10;;;13.20;99.90;;;;;;4989707;28;20552;-61
2022/04/14 06:16:53;;;;;;;0.10;0.10;;;13.30;99.90;;;;;;4989138;28;20145;-59
2022/04/14 06:19:19;;;;;;;0.10;0.10;;;13.50;99.90;;;;;;4989845;28;20109;-60
2022/04/14 06:21:45;;;;;;;0.00;0.00;;;13.70;99.90;;;;;;4986513;28;20423;-59
2022/04/14 06:24:11;;;;;;;0.10;0.10;;;13.70;99.90;;;;;;4984119;28;20128;-60
2022/04/14 06:26:36;;;;;;;0.10;0.10;;;13.80;99.90;;;;;;4981889;28;20045;-60
2022/04/14 06:29:03;;;;;;;0.10;0.10;;;13.90;99.90;;;;;;4990179;28;20478;-59
2022/04/14 06:31:28;;;;;;;0.10;0.10;;;14.00;99.90;;;;;;4989728;28;20045;-60
2022/04/14 06:33:54;;;;;;;0.10;0.10;;;14.00;99.90;;;;;;4989558;28;20030;-61
2022/04/14 06:36:19;;;;;;;0.10;0.10;;;14.20;99.90;;;;;;4988852;28;20049;-59
2022/04/14 06:38:45;;;;;;;0.10;0.10;;;14.30;99.90;;;;;;4989656;28;20765;-59
2022/04/14 06:41:11;;;;;;;0.10;0.10;;;14.30;99.90;;;;;;4989289;28;20033;-61
2022/04/14 06:43:36;;;;;;;0.20;0.20;;;14.40;99.90;;;;;;4989914;28;20030;-60
2022/04/14 06:46:03;;;;;;;0.10;0.10;;;14.40;99.90;;;;;;4989612;28;20061;-61
2022/04/14 06:48:31;;;;;;;0.00;0.00;;;14.50;99.90;;;;;;4990090;28;20026;-61
2022/04/14 06:50:58;;;;;;;0.10;0.10;;;14.60;99.90;;;;;;4989327;28;20513;-60
2022/04/14 06:53:24;;;;;;;0.10;0.10;;;14.70;99.90;;;;;;4988455;28;20033;-60
2022/04/14 06:55:49;;;;;;;0.00;0.00;;;14.80;99.90;;;;;;4990287;28;20034;-60
2022/04/14 06:58:15;;;;;;;0.10;0.10;;;14.80;99.90;;;;;;4989927;28;20041;-60
2022/04/14 07:00:41;;;;;;;1.75;1.60;;;14.90;99.90;;;;;;4988722;28;20034;-59
2022/04/14 07:03:06;;;;;;;0.10;0.10;;;15.00;99.90;;;;;;4990989;28;20084;-65
2022/04/14 07:05:32;;;;;;;0.10;0.10;;;15.00;99.90;;;;;;4991209;28;20038;-63
2022/04/14 07:07:57;;;;;;;0.10;0.10;;;15.10;99.90;;;;;;4989620;28;20027;-63
2022/04/14 07:10:23;;;;;;;0.05;0.05;;;15.10;99.90;;;;;;4985469;28;20101;-63
2022/04/14 07:12:49;;;;;;;0.10;0.10;;;15.20;99.90;;;;;;4979295;28;20470;-63
2022/04/14 07:15:15;;;;;;;0.00;0.00;;;15.40;99.90;;;;;;4993493;28;20460;-62
2022/04/14 07:17:40;;;;;;;0.15;0.15;;;15.40;99.90;;;;;;4991778;28;20541;-63
2022/04/14 07:20:09;;;;;;;0.43;0.43;;;15.40;99.90;;;;;;4992696;28;20026;-63
2022/04/14 07:22:46;;;;;;;0.10;0.10;;;15.40;99.90;;;;;;4983446;28;20010;-63
2022/04/14 07:25:13;;;;;;;0.10;0.10;;;15.50;99.90;;;;;;4973788;28;20026;-63
2022/04/14 07:27:38;;;;;;;0.13;0.13;;;15.60;99.90;;;;;;4976054;28;20030;-62
2022/04/14 07:30:05;;;;;;;0.03;0.03;;;15.70;99.90;;;;;;5008983;23;20077;-71
2022/04/14 07:32:43;;;;;;;0.25;0.25;;;15.80;99.90;;;;;;4981556;28;20026;-69
2022/04/14 07:35:09;;;;;;;0.10;0.10;;;15.90;99.90;;;;;;4982603;28;20035;-68
2022/04/14 07:37:36;;;;;;;0.10;0.10;;;16.00;99.90;;;;;;4967830;28;20096;-72
2022/04/14 07:40:02;;;;;;;0.10;0.10;;;16.10;99.90;;;;;;4980567;28;20054;-71
2022/04/14 07:42:36;;;;;;;0.10;0.10;;;16.10;99.90;;;;;;4983321;28;20077;-71
2022/04/14 07:45:03;;;;;;;0.10;0.10;;;16.10;99.90;;;;;;4977796;28;20478;-71
2022/04/14 07:47:29;;;;;;;0.10;0.10;;;16.30;99.90;;;;;;4982747;28;20149;-68
2022/04/14 07:49:55;;;;;;;0.15;0.15;;;16.30;99.90;;;;;;4978305;28;20111;-70
2022/04/14 07:52:23;;;;;;;0.00;0.00;;;16.30;99.90;;;;;;4983356;28;20105;-69
2022/04/14 07:54:49;;;;;;;0.00;0.00;;;16.40;99.90;;;;;;4980412;28;20027;-69
2022/04/14 07:57:14;;;;;;;0.10;0.10;;;16.50;99.90;;;;;;4988843;28;20097;-71
2022/04/14 07:59:40;;;;;;;0.05;0.05;;;16.50;99.90;;;;;;4974280;28;20500;-70
2022/04/14 08:02:06;;;;;;;0.00;0.00;;;16.70;99.90;;;;;;4974910;28;20082;-70
2022/04/14 08:04:32;;;;;;;0.20;0.20;;;16.60;99.90;;;;;;4972902;28;20102;-71
2022/04/14 08:06:57;;;;;;;0.00;0.00;;;16.70;99.90;;;;;;4973288;28;20442;-71
2022/04/14 08:09:23;;;;;;;0.17;0.17;;;16.80;99.90;;;;;;4955613;28;20063;-71
2022/04/14 08:11:49;;;;;;;0.00;0.00;;;16.90;99.90;;;;;;4953730;28;20043;-70
2022/04/14 08:14:15;;;;;;;0.00;0.00;;;17.00;99.90;;;;;;4970030;28;20074;-71
2022/04/14 08:16:40;;;;;;;0.00;0.00;;;17.00;99.90;;;;;;4970549;28;20491;-71
2022/04/14 08:19:06;;;;;;;0.00;0.00;;;17.00;99.90;;;;;;4968927;28;20027;-70
2022/04/14 08:21:31;;;;;;;0.08;0.08;;;17.00;99.90;;;;;;4974619;28;20030;-75
2022/04/14 08:23:58;;;;;;;0.10;0.10;;;17.20;99.90;;;;;;4975413;28;20031;-75
2022/04/14 08:26:26;;;;;;;0.10;0.10;;;16.40;99.90;;;;;;4980372;28;20023;-74
2022/04/14 08:28:53;;;;;;;0.10;0.10;;;17.00;99.90;;;;;;4959338;28;20094;-75
2022/04/14 08:31:21;;;;;;;0.00;0.00;;;17.10;99.90;;;;;;4955620;28;20041;-76
2022/04/14 08:33:48;;;;;;;0.00;0.00;;;17.20;99.90;;;;;;4956096;28;20614;-74
2022/04/14 08:36:15;;;;;;;0.10;0.10;;;17.30;99.90;;;;;;4955735;28;20507;-76
2022/04/14 08:38:45;;;;;;;0.10;0.10;;;17.30;99.90;;;;;;4954949;28;20035;-74
2022/04/14 08:41:18;;;;;;;0.08;0.08;;;17.10;99.90;;;;;;4954051;28;20102;-76
2022/04/14 08:44:01;;;;;;;0.10;0.10;;;17.20;99.90;;;;;;4954636;28;20024;-75
2022/04/14 08:46:28;;;;;;;1.45;1.45;;;17.30;99.90;;;;;;4954110;29;20019;-77
2022/04/14 08:48:57;;;;;;;0.00;0.00;;;17.40;99.90;;;;;;4972133;28;20045;-79
2022/04/14 08:51:25;;;;;;;0.10;0.10;;;17.40;99.90;;;;;;4972368;28;20042;-76
2022/04/14 08:53:51;;;;;;;0.00;0.00;;;17.60;99.90;;;;;;4953464;28;20058;-75
2022/04/14 08:56:18;;;;;;;0.00;0.00;;;17.60;99.90;;;;;;4953932;28;20075;-76
2022/04/14 08:58:44;;;;;;;0.00;0.00;;;17.60;99.90;;;;;;4955954;28;20043;-78
2022/04/14 09:01:13;;;;;;;0.05;0.05;;;17.60;99.90;;;;;;4970201;28;20031;-76
2022/04/14 09:03:39;;;;;;;0.00;0.00;;;17.60;99.90;;;;;;4958726;28;20031;-79
2022/04/14 09:06:05;;;;;;;0.10;0.10;;;17.60;99.90;;;;;;4974640;28;20126;-80
2022/04/14 09:08:30;;;;;;;0.10;0.10;;;17.70;99.90;;;;;;4971324;28;20557;-77
2022/04/14 09:10:56;;;;;;;0.90;0.90;;;17.80;99.90;;;;;;4973144;28;20081;-76
2022/04/14 09:13:22;;;;;;;0.00;0.00;;;17.90;99.90;;;;;;4972504;28;20081;-76
2022/04/14 09:15:48;;;;;;;0.00;0.00;;;18.00;99.90;;;;;;4972572;28;20030;-76
2022/04/14 09:18:14;;;;;;;0.25;0.25;;;18.10;99.90;;;;;;4972586;28;20110;-75
2022/04/14 09:20:42;;;;;;;0.40;0.40;;;18.20;99.90;;;;;;4972010;28;20030;-76
2022/04/14 09:23:18;;;;;;;0.10;0.10;;;18.40;99.90;;;;;;4972481;28;20038;-77
2022/04/14 09:25:44;;;;;;;0.10;0.10;;;18.30;99.90;;;;;;4971394;28;20065;-75
2022/04/14 09:28:11;;;;;;;0.10;0.10;;;18.40;99.90;;;;;;4970435;28;20482;-76
2022/04/14 09:30:37;;;;;;;0.38;0.38;;;18.50;99.90;;;;;;4952159;28;20555;-76
2022/04/14 09:33:03;;;;;;;0.10;0.10;;;18.40;99.90;;;;;;4952392;28;20170;-76
2022/04/14 09:35:31;;;;;;;0.00;0.00;;;18.60;99.90;;;;;;4952635;28;20046;-78
2022/04/14 09:38:07;;;;;;;0.00;0.00;;;18.70;99.90;;;;;;4952982;28;20030;-75
2022/04/14 09:40:37;;;;;;;0.10;0.10;;;18.60;99.90;;;;;;4952821;28;20023;-76
2022/04/14 09:43:05;;;;;;;0.00;0.00;;;18.60;99.90;;;;;;4953512;28;20027;-77
2022/04/14 09:45:32;;;;;;;0.00;0.00;;;18.70;99.90;;;;;;4970191;28;20015;-77
2022/04/14 09:48:10;;;;;;;0.00;0.00;;;18.90;99.90;;;;;;4952834;29;20035;-75
2022/04/14 09:50:40;;;;;;;0.00;0.00;;;18.90;99.90;;;;;;4952268;29;20019;-75
2022/04/14 09:53:08;;;;;;;0.00;0.00;;;18.90;99.90;;;;;;4953853;28;20027;-75
2022/04/14 09:55:35;;;;;;;0.00;0.00;;;18.90;99.90;;;;;;4954457;28;20547;-75
2022/04/14 09:58:12;;;;;;;0.10;0.10;;;19.00;99.90;;;;;;4968401;28;20019;-78
2022/04/14 10:00:42;;;;;;;0.10;0.10;;;18.90;99.90;;;;;;4953206;28;20038;-79
2022/04/14 10:03:17;;;;;;;0.20;0.20;;;19.10;99.90;;;;;;4953142;28;20027;-77
2022/04/14 10:05:47;;;;;;;0.03;0.03;;;19.20;99.90;;;;;;4970976;28;20081;-76
2022/04/14 10:08:15;;;;;;;0.10;0.10;;;19.20;99.90;;;;;;4971733;28;20046;-75
2022/04/14 10:10:43;;;;;;;0.00;0.00;;;19.10;99.90;;;;;;4965874;28;20431;-76
2022/04/14 10:13:11;;;;;;;0.10;0.10;;;19.30;99.90;;;;;;4971770;28;20553;-77
2022/04/14 10:15:41;;;;;;;0.10;0.10;;;19.40;99.90;;;;;;4971621;28;20023;-80
2022/04/14 10:18:12;;;;;;;0.52;0.52;;;19.40;99.90;;;;;;4963181;28;20479;-76
2022/04/14 10:20:39;;;;;;;0.00;0.00;;;19.60;99.90;;;;;;4952337;28;20039;-76
2022/04/14 10:23:07;;;;;;;0.17;0.17;;;19.30;99.90;;;;;;4952537;28;20023;-75
2022/04/14 10:25:37;;;;;;;0.10;0.10;;;19.70;99.90;;;;;;4964485;28;20095;-75
2022/04/14 10:28:08;;;;;;;0.05;0.05;;;19.70;99.90;;;;;;4971304;28;20086;-76
2022/04/14 10:30:34;;;;;;;0.00;0.00;;;19.60;99.90;;;;;;4970072;28;20035;-76
2022/04/14 10:33:00;;;;;;;0.10;0.10;;;19.80;99.90;;;;;;4970333;28;20494;-74
2022/04/14 10:35:28;;;;;;;0.00;0.00;;;19.90;99.90;;;;;;4972055;28;20050;-76
2022/04/14 10:38:15;;;;;;;0.00;0.00;;;19.80;99.90;;;;;;4975451;28;20103;-78
2022/04/14 10:40:57;;;;;;;0.00;0.00;;;19.90;99.90;;;;;;4976918;28;20129;-76
2022/04/14 10:43:24;;;;;;;0.93;0.30;;;19.90;99.90;;;;;;4986790;28;20019;-74
2022/04/14 10:45:56;;;;;;;0.20;0.20;;;19.90;99.90;;;;;;4977167;28;20090;-77
2022/04/14 10:48:36;;;;;;;0.00;0.00;;;19.90;99.90;;;;;;4976386;28;20031;-74
2022/04/14 10:51:25;;;;;;;0.13;0.13;;;20.10;99.90;;;;;;4966436;28;20391;-78
2022/04/14 10:53:56;;;;;;;0.00;0.00;;;20.30;99.90;;;;;;4974580;28;20030;-75
2022/04/14 10:56:33;;;;;;;0.00;0.00;;;20.40;99.90;;;;;;4972611;28;20026;-69
2022/04/14 10:59:04;;;;;;;0.00;0.00;;;20.40;99.90;;;;;;4970573;28;20043;-76
2022/04/14 11:01:48;;;;;;;0.00;0.00;;;20.30;99.90;;;;;;4970905;28;20483;-76
2022/04/14 11:04:25;;;;;;;0.00;0.00;;;20.30;99.90;;;;;;4972892;28;20058;-75
2022/04/14 11:06:53;;;;;;;0.00;0.00;;;20.40;99.90;;;;;;4974048;28;20235;-75
2022/04/14 11:09:50;;;;;;;0.08;0.08;;;20.60;99.90;;;;;;4970007;28;21386;-67
2022/04/14 11:12:24;;;;;;;0.00;0.00;;;20.60;99.90;;;;;;4974901;28;20077;-76
2022/04/14 11:15:00;;;;;;;0.10;0.10;;;20.50;99.90;;;;;;4972799;28;20058;-75
2022/04/14 11:17:38;;;;;;;0.00;0.00;;;20.40;99.90;;;;;;4971855;28;20479;-74
2022/04/14 11:20:20;;;;;;;0.20;0.20;;;20.60;99.90;;;;;;4970234;28;20027;-74
2022/04/14 11:23:07;;;;;;;0.00;0.00;;;20.70;99.90;;;;;;4972618;28;20085;-74
2022/04/14 11:25:42;;;;;;;5.00;0.80;;;20.70;99.90;;;;;;4974415;28;20049;-76
2022/04/14 11:28:33;;;;;;;0.00;0.00;;;20.70;99.90;;;;;;4969063;28;20035;-75
2022/04/14 11:31:01;;;;;;;0.00;0.00;;;20.70;99.90;;;;;;4972319;28;20125;-74
2022/04/14 11:33:29;;;;;;;0.68;0.68;;;20.70;99.90;;;;;;4970050;28;20019;-75
2022/04/14 11:36:18;;;;;;;0.10;0.10;;;20.90;99.90;;;;;;4979251;28;20029;-74
2022/04/14 11:38:54;;;;;;;0.00;0.00;;;21.00;99.90;;;;;;4979297;28;20172;-75
2022/04/14 11:41:30;;;;;;;0.00;0.00;;;21.00;99.90;;;;;;4980281;28;20023;-74
2022/04/14 11:43:57;;;;;;;0.00;0.00;;;20.80;99.90;;;;;;4978486;28;20023;-73
2022/04/14 11:46:26;;;;;;;0.10;0.10;;;20.90;99.90;;;;;;4979349;28;20026;-75
2022/04/14 11:48:52;;;;;;;0.00;0.00;;;21.00;99.90;;;;;;4980813;28;20046;-73
2022/04/14 11:51:18;;;;;;;1.92;1.83;;;21.00;99.90;;;;;;4981706;28;20030;-75
2022/04/14 11:53:44;;;;;;;0.00;0.00;;;21.00;99.90;;;;;;4974904;28;20034;-74
2022/04/14 11:56:17;;;;;;;0.00;0.00;;;21.30;99.90;;;;;;4977473;28;20026;-73
2022/04/14 11:58:43;;;;;;;0.10;0.10;;;21.40;99.90;;;;;;4978355;28;20491;-73
2022/04/14 12:01:09;;;;;;;0.00;0.00;;;21.50;99.90;;;;;;4973507;28;20027;-74
2022/04/14 12:03:35;;;;;;;0.00;0.00;;;21.20;99.90;;;;;;4965765;28;20505;-73
2022/04/14 12:06:06;;;;;;;0.00;0.00;;;21.20;99.90;;;;;;4970662;28;20554;-74
2022/04/14 12:08:32;;;;;;;0.00;0.00;;;21.30;99.90;;;;;;4972657;28;20115;-74
2022/04/14 12:11:02;;;;;;;0.00;0.00;;;21.50;99.90;;;;;;4972444;28;20115;-74
2022/04/14 12:13:31;;;;;;;0.03;0.03;;;21.60;99.90;;;;;;4971301;28;20505;-78
2022/04/14 12:16:06;;;;;;;0.00;0.00;;;21.90;99.90;;;;;;4971370;28;20042;-76
2022/04/14 12:18:32;;;;;;;0.00;0.00;;;22.10;99.90;;;;;;4970845;28;20118;-74
2022/04/14 12:20:57;;;;;;;1.55;1.45;;;22.20;99.90;;;;;;4972268;28;20216;-76
2022/04/14 12:23:23;;;;;;;0.00;0.00;;;22.20;99.90;;;;;;4958548;28;20037;-74
2022/04/14 12:25:51;;;;;;;0.00;0.00;;;22.30;99.90;;;;;;4970873;28;20393;-76
2022/04/14 12:28:17;;;;;;;0.00;0.00;;;22.40;99.90;;;;;;4972584;28;20113;-74
2022/04/14 12:30:42;;;;;;;0.00;0.00;;;22.30;99.90;;;;;;4972548;28;20110;-76
2022/04/14 12:33:09;;;;;;;0.20;0.20;;;22.50;99.90;;;;;;4970791;28;20034;-75
2022/04/14 12:35:42;;;;;;;0.30;0.30;;;22.30;99.90;;;;;;4968802;28;20031;-76
2022/04/14 12:38:19;;;;;;;0.00;0.00;;;22.10;99.90;;;;;;4970449;28;20015;-77
2022/04/14 12:41:02;;;;;;;0.00;0.00;;;22.40;99.90;;;;;;4963649;28;20043;-75
2022/04/14 12:43:33;;;;;;;0.08;0.08;;;23.50;99.90;;;;;;4965666;28;20015;-76
2022/04/14 12:45:59;;;;;;;0.00;0.00;;;24.90;99.90;;;;;;4969890;28;20109;-77
2022/04/14 12:48:35;;;;;;;0.00;0.00;;;25.30;99.90;;;;;;4964150;28;20109;-76
2022/04/14 12:51:01;;;;;;;0.90;0.90;;;25.30;99.90;;;;;;4961772;28;20027;-77